Strona główna
METAR-TAF:

METAR-TAF

Lotnisko :

Troy, Michigan, Stany Zjednoczone

Szerokość geograficzna: 42-32-35N, Długość geograficzna: 083-10-40W, wysokość: 222 m

Aktualna obserwacja pogody

Raport powstał 21 minut temu, godzina 19:55 UTC
Wiatr 4 kt od zachód
Temperatura -5°C
Wilgotność 86%
Ciśnienie 1020 hPa
Widzialność: 4.8 km
Rozproszone chmury na wysokości 2100 ft
Przerywane chmury na wysokości 3300 ft
Zachmurzenie całkowite na wysokości 4000 ft
słaby śnieg

METAR: KVLL 191955Z AUTO 26004KT 3SM -SN SCT021 BKN033 OVC040 M05/M07 A3012 RMK AO2 T10461073

czas: 15:16 (20:16 UTC)


TAF: brakujący

Obserwacja i prognoza pogody dla ponad 4000 lotnisk (raport METAR i TAF).

Dostępne stacje oznaczono żółtymi i czerwonymi punktami na mapie.

Najedź kursorem aby zobaczyć nazwę stacji.

Kliknij aby zobaczyć obserwacje i prognozy pogody.

Aby zmienić mapę: kliknij na zielony przycisk z czarnym krzyżykiem, aby powiększyć; na zielony przycisk z myślnikiem, aby pomniejszyć; na zielone strzałki, aby przejść do map sąsiednich.


METAR-TAF: